Fukue Airport
RJFE : now visible

Airfield :











YOU CAN JOIN US ON...

 
LOGIN :

Register | Disclaimer

   EN    FR    IT 

 









Legend :    VFR   Marginal VFR   IFR   Intensive IFR   Very Intensive IFR
Visi :
Ceiling :
>= 8 km
>= 3000ft
5 to 8 km
1000 to 3000 ft
1500m to 5 km
500 to 1000 ft
800 to 1500m
200 to 500 ft
< 800m
< 200 ft
Symbols :   Thunderstorms  Fog  Heavy snow  Heavy precipitations  Wind > 20 kt






- Airport Elevation : 273 ft
- IATA code : FUJ


RJFE - Fukue

CURRENT METAR :
  • 290400Z 03011KT 350V070 CAVOK 24/10 Q1012

EXPIRED METARs :
  • 290300Z 04009KT 360V090 CAVOK 22/10 Q1013
  • 290200Z 03013KT CAVOK 22/12 Q1013
  • 290100Z 04009KT 010V070 CAVOK 20/13 Q1014
  • 290000Z 02011KT 9999 FEW040 19/13 Q1014

TAF N/A
RJJJ FIR / Asia



MET'MAP, your aeronautical weather chart ! - Copyright ORBIFLY December 2007 - Disclaimer

ORBIFLY MET'MAP TEAM :

Programming & Development : Alexandra Zaïnal
Original concept : Baudouin d'Aumeries
Technical & hardware support : Manuel Goepfert
Assistance : Marc-Olivier Méhu




SOURCES & CREDITS :

   NOAA       Earth
Advisory